Time;durP1;ratioP1;P1;durP2;ratioP2;P2;SDS_P1;SDS_P2;PMS_P1;PMS_P2;Temp;Humidity;BMP_temperature;BMP_pressure;BME280_temperature;BME280_humidity;BME280_pressure;Samples;Min_cycle;Max_cycle;Signal;HPM_P1;HPM_P2
2024/01/03 00:01:33;;;;;;;335.15;12.73;;;;;;;21.24;51.33;96965.78;7283560;19;130150;-37
2024/01/03 00:03:58;;;;;;;382.42;14.50;;;;;;;21.21;51.14;96949.69;7285264;19;131851;-35
2024/01/03 00:06:31;;;;;;;253.85;9.15;;;;;;;21.22;51.63;96954.72;7289558;19;129211;-37
2024/01/03 00:08:56;;;;;;;235.63;8.40;;;;;;;21.26;51.05;96948.09;7286491;19;129479;-37
2024/01/03 00:11:27;;;;;;;315.08;12.25;;;;;;;21.25;51.81;96956.13;7286136;19;131276;-37
2024/01/03 00:14:20;;;;;;;266.50;9.75;;;;;;;21.22;52.09;96952.09;7287420;19;131892;-38
2024/01/03 00:16:46;;;;;;;269.77;10.00;;;;;;;21.27;51.74;96965.38;7288309;19;129623;-38
2024/01/03 00:19:16;;;;;;;218.93;7.95;;;;;;;21.25;51.75;96964.78;7290058;19;130491;-35
2024/01/03 00:21:41;;;;;;;211.63;7.78;;;;;;;21.26;52.13;96969.00;7289146;19;131417;-37
2024/01/03 00:24:10;;;;;;;199.77;7.28;;;;;;;21.21;51.12;96967.97;7289901;19;131028;-38
2024/01/03 00:26:39;;;;;;;274.83;10.10;;;;;;;21.23;51.07;96960.75;7288566;19;129634;-38
2024/01/03 00:29:14;;;;;;;169.05;5.97;;;;;;;21.25;51.33;96972.63;7290993;19;130821;-34
2024/01/03 00:31:41;;;;;;;235.48;8.73;;;;;;;21.23;51.40;96964.19;7287594;19;130395;-35
2024/01/03 00:34:22;;;;;;;206.90;7.47;;;;;;;21.23;52.33;96969.41;7288877;19;131094;-37
2024/01/03 00:36:48;;;;;;;251.07;9.27;;;;;;;21.22;51.15;96978.22;7287221;19;130342;-37
2024/01/03 00:39:13;;;;;;;243.02;8.45;;;;;;;21.27;51.46;96970.59;7293613;19;129541;-37
2024/01/03 00:41:39;;;;;;;249.82;9.18;;;;;;;21.26;51.38;96974.22;7295896;19;129897;-35
2024/01/03 00:44:04;;;;;;;188.15;6.90;;;;;;;21.13;51.60;96958.53;7296178;19;131707;-37
2024/01/03 00:46:30;;;;;;;227.10;8.63;;;;;;;21.23;50.81;96972.03;7295757;19;129434;-35
2024/01/03 00:48:55;;;;;;;243.32;8.68;;;;;;;21.15;51.58;96953.94;7296443;19;129681;-36
2024/01/03 00:51:21;;;;;;;272.20;10.43;;;;;;;21.27;51.80;96975.81;7297253;19;130342;-36
2024/01/03 00:53:46;;;;;;;199.70;7.40;;;;;;;21.26;51.20;96973.41;7294397;19;131262;-37
2024/01/03 00:56:12;;;;;;;142.80;5.10;;;;;;;21.24;51.19;96965.78;7295393;19;129412;-35
2024/01/03 00:58:38;;;;;;;258.23;9.02;;;;;;;21.23;51.12;96973.81;7297521;19;129513;-37
2024/01/03 01:01:03;;;;;;;253.25;9.43;;;;;;;21.24;51.10;96971.00;7296630;19;130594;-37
2024/01/03 01:03:29;;;;;;;189.98;7.10;;;;;;;21.28;50.99;96982.69;7296810;19;131096;-36
2024/01/03 01:05:54;;;;;;;258.33;9.57;;;;;;;21.24;51.64;96981.44;7291708;19;131251;-37
2024/01/03 01:08:20;;;;;;;221.15;8.10;;;;;;;21.22;51.58;96999.13;7294713;19;129123;-37
2024/01/03 01:10:45;;;;;;;212.30;7.68;;;;;;;21.27;51.34;96993.34;7296684;19;130713;-35
2024/01/03 01:13:10;;;;;;;196.48;7.03;;;;;;;21.25;51.33;96995.34;7295781;19;132838;-37
2024/01/03 01:15:36;;;;;;;300.92;10.98;;;;;;;21.22;51.47;96993.13;7292652;19;129827;-37
2024/01/03 01:18:01;;;;;;;181.73;6.53;;;;;;;21.23;51.77;96995.53;7297130;19;129999;-35
2024/01/03 01:20:26;;;;;;;146.53;5.33;;;;;;;21.22;50.99;97004.34;7294756;19;129556;-35
2024/01/03 01:22:51;;;;;;;201.20;6.97;;;;;;;21.23;50.90;97000.75;7296103;19;131513;-37
2024/01/03 01:25:17;;;;;;;264.33;9.27;;;;;;;21.25;50.82;96993.53;7294551;19;130410;-37
2024/01/03 01:27:43;;;;;;;216.45;7.82;;;;;;;21.25;50.94;97004.00;7293616;19;129573;-38
2024/01/03 01:30:08;;;;;;;94.43;3.45;;;;;;;21.27;51.64;96995.94;7295378;19;130574;-36
2024/01/03 01:32:34;;;;;;;166.97;6.30;;;;;;;21.25;51.44;97005.78;7293622;19;133635;-37
2024/01/03 01:34:59;;;;;;;246.57;8.80;;;;;;;21.20;50.76;97001.16;7294948;19;129829;-36
2024/01/03 01:37:24;;;;;;;269.55;10.07;;;;;;;21.27;51.26;97001.16;7294134;19;129288;-39
2024/01/03 01:39:50;;;;;;;164.55;5.90;;;;;;;21.24;51.36;97007.59;7293578;19;129669;-37
2024/01/03 01:42:15;;;;;;;204.63;7.50;;;;;;;21.24;51.02;96999.75;7294939;19;130419;-37
2024/01/03 01:44:40;;;;;;;261.52;9.77;;;;;;;21.21;51.53;97004.56;7293336;19;129209;-36
2024/01/03 01:47:08;;;;;;;227.60;8.13;;;;;;;21.22;51.18;97008.81;7292173;19;129970;-37
2024/01/03 01:49:33;;;;;;;365.58;14.20;;;;;;;21.26;51.22;97010.00;7288639;19;130870;-38
2024/01/03 01:52:00;;;;;;;261.42;9.27;;;;;;;21.19;51.41;96998.75;7291516;19;130518;-37
2024/01/03 01:54:25;;;;;;;218.87;7.77;;;;;;;21.22;50.84;97009.59;7291179;19;129654;-38
2024/01/03 01:56:51;;;;;;;266.10;9.23;;;;;;;21.24;50.77;97012.00;7292385;19;132730;-39
2024/01/03 01:59:19;;;;;;;201.80;7.15;;;;;;;21.21;51.27;97012.41;7294165;19;130086;-37
2024/01/03 02:01:44;;;;;;;385.13;14.82;;;;;;;21.23;50.89;97013.81;7287202;19;130376;-37
2024/01/03 02:04:10;;;;;;;211.00;7.75;;;;;;;21.21;51.13;97013.22;7290410;19;130488;-37
2024/01/03 02:06:36;;;;;;;188.15;6.90;;;;;;;21.19;50.83;97010.00;7290857;19;130847;-37
2024/01/03 02:09:01;;;;;;;232.00;8.17;;;;;;;21.22;51.26;97014.81;7291183;19;130665;-37
2024/01/03 02:11:26;;;;;;;122.78;4.55;;;;;;;21.21;51.39;97018.44;7292174;19;131112;-38
2024/01/03 02:13:52;;;;;;;233.33;8.40;;;;;;;21.22;50.83;97014.81;7287883;19;130334;-37
2024/01/03 02:16:18;;;;;;;245.68;8.68;;;;;;;21.30;51.19;97017.25;7291732;19;129541;-37
2024/01/03 02:18:44;;;;;;;226.50;8.48;;;;;;;21.25;51.13;97013.63;7294106;19;132347;-37
2024/01/03 02:21:16;;;;;;;204.77;7.57;;;;;;;21.21;51.20;97023.66;7293655;19;130535;-38
2024/01/03 02:23:43;;;;;;;232.00;8.57;;;;;;;21.19;50.89;97015.22;7292498;19;130119;-38
2024/01/03 02:26:08;;;;;;;185.73;6.60;;;;;;;21.22;51.44;97014.81;7291661;19;129654;-37
2024/01/03 02:28:35;;;;;;;279.48;10.18;;;;;;;21.25;51.44;97014.44;7294412;19;130629;-37
2024/01/03 02:31:00;;;;;;;214.77;7.78;;;;;;;21.22;50.76;97009.59;7293350;19;130546;-37
2024/01/03 02:33:25;;;;;;;204.32;7.43;;;;;;;21.12;51.02;96997.94;7291150;19;129651;-38
2024/01/03 02:35:51;;;;;;;199.15;7.38;;;;;;;21.21;51.36;97022.84;7289076;19;130893;-35
2024/01/03 02:38:16;;;;;;;225.32;8.20;;;;;;;21.04;51.23;97001.53;7292119;19;130170;-36
2024/01/03 02:40:44;;;;;;;228.53;8.53;;;;;;;21.23;51.24;97026.88;7291834;19;133006;-37
2024/01/03 02:43:09;;;;;;;199.77;7.65;;;;;;;21.20;50.94;97027.28;7293938;19;129670;-37
2024/01/03 02:45:35;;;;;;;281.05;10.32;;;;;;;21.20;51.08;97024.69;7290970;19;131018;-37
2024/01/03 02:48:02;;;;;;;260.70;9.27;;;;;;;21.06;51.43;96999.53;7293282;19;131500;-36
2024/01/03 02:50:27;;;;;;;231.45;8.48;;;;;;;21.14;51.44;96996.72;7293353;19;130820;-37
2024/01/03 02:52:53;;;;;;;152.50;5.38;;;;;;;21.25;51.21;97022.28;7291207;19;130684;-37
2024/01/03 02:55:18;;;;;;;151.63;5.33;;;;;;;21.11;50.99;96986.69;7291438;19;129678;-36
2024/01/03 02:57:43;;;;;;;299.83;10.95;;;;;;;21.24;50.70;97017.22;7291183;19;129801;-37
2024/01/03 03:00:10;;;;;;;172.63;6.07;;;;;;;21.26;51.07;97015.22;7293170;19;130550;-38
2024/01/03 03:02:35;;;;;;;268.45;10.20;;;;;;;21.24;51.31;97031.09;7288843;19;132096;-38
2024/01/03 03:05:01;;;;;;;243.60;8.67;;;;;;;21.26;50.76;97016.03;7290807;19;129270;-35
2024/01/03 03:07:26;;;;;;;247.90;9.13;;;;;;;21.08;50.96;96992.31;7293704;19;130659;-38
2024/01/03 03:09:52;;;;;;;202.93;7.57;;;;;;;21.25;51.06;97037.97;7290928;19;131714;-38
2024/01/03 03:12:17;;;;;;;79.60;2.92;;;;;;;21.23;50.52;97037.34;7291292;19;129223;-37
2024/01/03 03:14:42;;;;;;;284.60;10.13;;;;;;;21.29;51.56;97036.53;7290250;19;129019;-37
2024/01/03 03:17:08;;;;;;;219.98;7.88;;;;;;;21.24;51.01;97044.16;7293282;19;129538;-38
2024/01/03 03:19:33;;;;;;;223.97;7.87;;;;;;;21.23;50.75;97047.78;7292649;19;131047;-38
2024/01/03 03:21:59;;;;;;;199.40;7.10;;;;;;;21.26;50.84;97057.03;7291561;19;132170;-38
2024/01/03 03:24:25;;;;;;;271.17;9.98;;;;;;;21.28;50.87;97055.03;7291471;19;130479;-35
2024/01/03 03:26:51;;;;;;;242.27;9.30;;;;;;;21.30;50.69;97053.84;7291460;19;130526;-36
2024/01/03 03:29:16;;;;;;;99.60;3.63;;;;;;;21.29;51.83;97048.78;7286948;19;130231;-38
2024/01/03 03:31:42;;;;;;;223.32;8.52;;;;;;;21.21;50.68;97039.34;7288789;19;129398;-36
2024/01/03 03:34:07;;;;;;;219.48;7.80;;;;;;;21.25;50.68;97045.78;7290677;19;131392;-36
2024/01/03 03:36:33;;;;;;;177.35;6.30;;;;;;;21.26;51.26;97052.63;7292041;19;131561;-39
2024/01/03 03:38:58;;;;;;;210.60;7.90;;;;;;;21.24;51.43;97052.00;7289909;19;131050;-36
2024/01/03 03:41:23;;;;;;;281.20;10.57;;;;;;;21.26;50.92;97046.56;7290126;19;130542;-38
2024/01/03 03:43:49;;;;;;;212.50;7.93;;;;;;;21.25;50.64;97043.19;7290053;19;129142;-35
2024/01/03 03:46:18;;;;;;;165.33;6.00;;;;;;;21.29;50.77;97046.19;7291458;19;130199;-37
2024/01/03 03:48:43;;;;;;;233.00;8.80;;;;;;;21.26;51.35;97050.00;7290357;19;129730;-38
2024/01/03 03:51:08;;;;;;;231.20;8.10;;;;;;;21.25;51.12;97039.75;7288849;19;130293;-38
2024/01/03 03:53:34;;;;;;;273.33;9.95;;;;;;;21.27;50.73;97053.44;7286337;19;130687;-37
2024/01/03 03:55:59;;;;;;;380.23;15.13;;;;;;;21.22;50.93;97051.38;7285693;19;131050;-37
2024/01/03 03:58:24;;;;;;;230.77;8.87;;;;;;;21.25;50.56;97050.22;7288068;19;131153;-37
2024/01/03 04:00:50;;;;;;;452.20;17.60;;;;;;;21.29;51.43;97049.59;7281411;19;130456;-35
2024/01/03 04:03:15;;;;;;;126.55;4.65;;;;;;;21.28;50.46;97050.63;7292053;19;129286;-37
2024/01/03 04:05:40;;;;;;;119.33;4.17;;;;;;;21.30;51.00;97059.06;7286961;19;131068;-38
2024/01/03 04:08:06;;;;;;;231.77;8.40;;;;;;;21.27;50.62;97059.44;7290091;19;130329;-37
2024/01/03 04:10:31;;;;;;;248.32;8.95;;;;;;;21.27;51.05;97064.66;7291903;19;131126;-37
2024/01/03 04:12:57;;;;;;;194.55;7.13;;;;;;;21.24;50.56;97054.63;7289780;19;130648;-38
2024/01/03 04:15:24;;;;;;;146.80;5.30;;;;;;;21.30;51.14;97064.28;7295334;19;130041;-37
2024/01/03 04:17:49;;;;;;;;;;;;;;;21.23;51.58;97063.47;7296914;19;131022;-37
2024/01/03 04:20:15;;;;;;;190.15;6.85;;;;;;;21.28;50.60;97061.06;7298397;19;129437;-38
2024/01/03 04:22:43;;;;;;;196.37;6.73;;;;;;;21.26;50.57;97063.06;7293519;19;131992;-37
2024/01/03 04:25:09;;;;;;;254.40;9.23;;;;;;;21.24;50.61;97070.28;7292862;19;129196;-37
2024/01/03 04:27:35;;;;;;;414.58;15.80;;;;;;;21.26;50.44;97073.53;7293691;19;131109;-36
2024/01/03 04:30:00;;;;;;;215.98;7.78;;;;;;;21.25;50.70;97076.34;7297448;19;130066;-37
2024/01/03 04:32:25;;;;;;;194.05;7.00;;;;;;;21.27;50.66;97080.34;7289349;19;130545;-36
2024/01/03 04:34:51;;;;;;;228.93;8.00;;;;;;;21.24;50.73;97074.72;7291477;19;130880;-38
2024/01/03 04:37:16;;;;;;;204.88;7.20;;;;;;;21.23;50.81;97076.53;7297764;19;131540;-37
2024/01/03 04:39:41;;;;;;;195.93;6.77;;;;;;;21.28;50.96;97076.75;7295935;19;129332;-35
2024/01/03 04:42:07;;;;;;;236.63;8.70;;;;;;;21.12;50.83;97050.97;7296492;19;130112;-37
2024/01/03 04:44:33;;;;;;;233.13;8.47;;;;;;;21.27;50.74;97079.56;7297111;19;130704;-38
2024/01/03 04:46:58;;;;;;;228.40;8.75;;;;;;;21.27;50.90;97084.78;7297403;19;130506;-36
2024/01/03 04:49:24;;;;;;;140.27;4.80;;;;;;;21.14;50.99;97069.88;7297017;19;129080;-38
2024/01/03 04:51:49;;;;;;;226.35;8.25;;;;;;;21.28;50.49;97095.03;7291736;19;129303;-36
2024/01/03 04:54:14;;;;;;;269.20;9.82;;;;;;;21.27;50.77;97090.03;7293972;19;130120;-37
2024/01/03 04:56:40;;;;;;;184.77;6.72;;;;;;;21.27;51.18;97095.25;7296512;19;130261;-37
2024/01/03 04:59:05;;;;;;;206.33;7.33;;;;;;;21.23;51.28;97099.25;7296317;19;130846;-37
2024/01/03 05:01:30;;;;;;;294.75;11.20;;;;;;;21.21;52.04;97096.00;7296104;19;130929;-35
2024/01/03 05:03:56;;;;;;;162.52;5.90;;;;;;;21.22;52.12;97089.81;7295723;19;129067;-36
2024/01/03 05:06:21;;;;;;;188.18;6.60;;;;;;;21.24;51.35;97095.63;7297386;19;130252;-37
2024/01/03 05:08:46;;;;;;;233.70;8.63;;;;;;;21.24;51.36;97106.06;7295387;19;129411;-37
2024/01/03 05:11:12;;;;;;;275.02;9.88;;;;;;;21.25;50.76;97113.75;7296602;19;129972;-37
2024/01/03 05:13:37;;;;;;;154.33;5.70;;;;;;;21.25;51.15;97103.28;7294317;19;131098;-38
2024/01/03 05:16:03;;;;;;;182.02;6.68;;;;;;;21.28;50.65;97107.28;7292774;19;130255;-38
2024/01/03 05:18:28;;;;;;;199.50;7.30;;;;;;;21.27;51.08;97106.47;7295275;19;129159;-37
2024/01/03 05:20:54;;;;;;;306.20;11.43;;;;;;;21.29;51.08;97122.78;7293710;19;129178;-37
2024/01/03 05:23:19;;;;;;;237.32;8.88;;;;;;;21.28;50.78;97123.78;7295323;19;130693;-37
2024/01/03 05:25:44;;;;;;;262.48;10.05;;;;;;;21.30;50.80;97121.78;7290625;19;130449;-38
2024/01/03 05:28:09;;;;;;;188.68;6.68;;;;;;;21.30;51.28;97120.97;7293829;19;129789;-35
2024/01/03 05:30:35;;;;;;;203.48;7.50;;;;;;;21.28;50.98;97141.25;7291536;19;129573;-38
2024/01/03 05:33:00;;;;;;;214.15;8.15;;;;;;;21.23;51.84;97136.63;7291637;19;129924;-36
2024/01/03 05:35:25;;;;;;;325.90;12.33;;;;;;;21.27;51.36;97142.28;7282437;19;130382;-39
2024/01/03 05:37:52;;;;;;;323.75;12.20;;;;;;;21.31;51.22;97133.84;7292325;19;129318;-35
2024/01/03 05:40:18;;;;;;;218.48;8.00;;;;;;;21.32;51.06;97135.44;7295094;19;130016;-38
2024/01/03 05:42:44;;;;;;;266.77;9.88;;;;;;;21.30;50.80;97141.88;7293380;19;132219;-37
2024/01/03 05:45:09;;;;;;;245.50;9.13;;;;;;;21.32;50.94;97139.88;7286683;19;131266;-36
2024/01/03 05:47:34;;;;;;;261.42;9.35;;;;;;;21.19;51.18;97127.56;7291138;19;129777;-38
2024/01/03 05:50:00;;;;;;;284.45;11.15;;;;;;;21.36;51.21;97154.16;7292284;19;130561;-38
2024/01/03 05:52:25;;;;;;;238.88;8.98;;;;;;;21.16;51.03;97130.59;7289702;19;130758;-37
2024/01/03 05:54:51;;;;;;;153.23;5.60;;;;;;;21.30;51.85;97153.16;7291146;19;130316;-37
2024/01/03 05:57:16;;;;;;;292.65;10.32;;;;;;;21.33;51.19;97157.97;7288261;19;129846;-37
2024/01/03 05:59:41;;;;;;;211.10;7.60;;;;;;;21.34;50.64;97154.34;7291235;19;131227;-37
2024/01/03 06:02:07;;;;;;;186.18;6.85;;;;;;;21.27;51.05;97153.53;7291446;19;132217;-37
2024/01/03 06:04:32;;;;;;;199.38;7.30;;;;;;;21.35;50.65;97155.97;7291870;19;130588;-37
2024/01/03 06:06:57;;;;;;;358.23;13.40;;;;;;;21.35;51.34;97150.75;7291094;19;130649;-37
2024/01/03 06:09:23;;;;;;;194.35;7.20;;;;;;;21.39;51.04;97161.59;7293574;19;129579;-37
2024/01/03 06:11:49;;;;;;;117.88;4.25;;;;;;;21.34;50.91;97159.56;7290208;19;130194;-37
2024/01/03 06:14:14;;;;;;;135.10;4.82;;;;;;;21.27;50.90;97156.13;7288757;19;130549;-35
2024/01/03 06:16:40;;;;;;;279.33;10.27;;;;;;;21.19;50.53;97138.03;7293253;19;129215;-38
2024/01/03 06:19:05;;;;;;;215.93;8.30;;;;;;;21.35;51.07;97166.44;7292358;19;129583;-36
2024/01/03 06:21:32;;;;;;;256.77;9.82;;;;;;;21.37;50.44;97169.63;7289762;19;131148;-38
2024/01/03 06:23:58;;;;;;;211.52;7.55;;;;;;;21.34;50.70;97174.44;7292172;19;130661;-37
2024/01/03 06:26:26;;;;;;;239.73;8.68;;;;;;;21.35;51.01;97174.28;7291330;19;129789;-37
2024/01/03 06:28:51;;;;;;;186.93;6.97;;;;;;;21.33;51.29;97173.66;7291363;19;129533;-37
2024/01/03 06:31:21;;;;;;;221.32;7.90;;;;;;;21.31;51.05;97180.88;7292063;19;130001;-37
2024/01/03 06:33:48;;;;;;;214.73;7.95;;;;;;;21.34;51.50;97175.25;7286271;19;130268;-37
2024/01/03 06:36:13;;;;;;;311.15;11.32;;;;;;;21.36;50.34;97181.09;7288705;19;129257;-35
2024/01/03 06:38:39;;;;;;;197.48;7.47;;;;;;;21.33;51.08;97188.53;7291320;19;130520;-37
2024/01/03 06:41:04;;;;;;;214.55;8.13;;;;;;;21.26;51.38;97172.00;7290942;19;130856;-38
2024/01/03 06:43:29;;;;;;;261.02;9.38;;;;;;;21.31;51.09;97196.56;7291547;19;130582;-37
2024/01/03 06:45:55;;;;;;;221.70;8.18;;;;;;;21.18;50.79;97170.38;7288777;19;129805;-37
2024/01/03 06:48:21;;;;;;;243.37;8.97;;;;;;;21.33;51.43;97193.75;7292329;19;131391;-37
2024/01/03 06:50:46;;;;;;;232.00;8.70;;;;;;;21.35;50.49;97197.78;7286100;19;130900;-36
2024/01/03 06:53:13;;;;;;;258.65;9.43;;;;;;;21.23;50.68;97188.91;7290667;19;131612;-37
2024/01/03 06:55:38;;;;;;;187.77;6.90;;;;;;;21.34;50.54;97196.16;7287209;19;132796;-37
2024/01/03 06:58:03;;;;;;;252.80;9.67;;;;;;;21.36;51.00;97215.09;7291549;19;129966;-37
2024/01/03 07:00:28;;;;;;;220.55;8.23;;;;;;;21.35;50.99;97208.25;7288721;19;131630;-36
2024/01/03 07:02:54;;;;;;;222.98;7.60;;;;;;;21.31;50.35;97217.47;7287897;19;130287;-37
2024/01/03 07:05:19;;;;;;;357.67;13.57;;;;;;;21.36;51.21;97216.88;7284427;19;131873;-37
2024/01/03 07:07:44;;;;;;;234.65;8.43;;;;;;;21.32;50.69;97221.69;7289450;19;129784;-37
2024/01/03 07:10:10;;;;;;;226.48;8.18;;;;;;;21.32;50.53;97208.63;7289075;19;131974;-37
2024/01/03 07:12:37;;;;;;;227.38;8.18;;;;;;;21.37;50.45;97210.66;7290816;19;131315;-37
2024/01/03 07:15:02;;;;;;;;;;;;;;;21.34;51.84;97206.63;7290598;19;129407;-37
2024/01/03 07:17:27;;;;;;;231.68;8.35;;;;;;;21.32;50.97;97210.44;7289202;19;130499;-37
2024/01/03 07:19:53;;;;;;;241.20;9.10;;;;;;;21.34;51.23;97219.69;7290892;19;131372;-37
2024/01/03 07:22:18;;;;;;;218.40;8.10;;;;;;;21.34;50.51;97206.63;7287366;19;132082;-36
2024/01/03 07:24:43;;;;;;;297.15;11.23;;;;;;;21.39;50.56;97230.38;7286935;19;129563;-38
2024/01/03 07:27:09;;;;;;;131.30;5.13;;;;;;;21.33;49.98;97215.47;7287788;19;132770;-38
2024/01/03 07:29:34;;;;;;;332.15;12.88;;;;;;;21.33;50.57;97225.13;7281869;19;130395;-37
2024/01/03 07:32:00;;;;;;;276.90;10.45;;;;;;;21.38;51.06;97223.53;7283172;19;131098;-36
2024/01/03 07:34:26;;;;;;;224.02;8.32;;;;;;;21.36;51.10;97225.53;7288402;19;132497;-36
2024/01/03 07:36:51;;;;;;;333.85;12.55;;;;;;;21.33;50.78;97231.16;7285424;19;131540;-37
2024/01/03 07:39:16;;;;;;;273.95;10.32;;;;;;;21.36;50.47;97219.50;7287930;19;129055;-37
2024/01/03 07:41:42;;;;;;;317.27;11.85;;;;;;;21.35;50.56;97229.16;7285023;19;130493;-38
2024/01/03 07:44:07;;;;;;;288.33;11.10;;;;;;;21.21;50.20;97187.47;7283486;19;130045;-37
2024/01/03 07:46:32;;;;;;;223.68;7.97;;;;;;;21.33;51.00;97218.09;7288736;19;129154;-38
2024/01/03 07:48:58;;;;;;;305.80;11.27;;;;;;;21.33;50.38;97217.28;7289566;19;129257;-37
2024/01/03 07:51:23;;;;;;;254.10;9.37;;;;;;;21.32;50.58;97223.50;7290676;19;131243;-37
2024/01/03 07:53:49;;;;;;;236.83;8.93;;;;;;;21.29;50.25;97213.44;7282249;19;131360;-36
2024/01/03 07:56:14;;;;;;;248.45;8.90;;;;;;;21.36;50.76;97222.91;7290311;19;130617;-35
2024/01/03 07:58:40;;;;;;;177.60;6.45;;;;;;;21.36;50.36;97225.53;7292815;19;132600;-37
2024/01/03 08:01:05;;;;;;;334.13;12.90;;;;;;;21.34;50.64;97222.31;7295267;19;131271;-38
2024/01/03 08:03:30;;;;;;;254.40;9.40;;;;;;;21.36;50.38;97229.94;7287391;19;131090;-38
2024/01/03 08:05:56;;;;;;;221.73;8.00;;;;;;;21.36;50.70;97228.16;7288283;19;129598;-38
2024/01/03 08:08:21;;;;;;;184.30;6.65;;;;;;;21.38;50.86;97234.00;7295780;19;133817;-37
2024/01/03 08:10:47;;;;;;;195.65;7.45;;;;;;;21.33;50.77;97227.72;7297305;19;129800;-35
2024/01/03 08:13:12;;;;;;;275.67;10.23;;;;;;;21.33;50.52;97225.13;7297922;19;132135;-37
2024/01/03 08:15:37;;;;;;;215.67;7.63;;;;;;;21.36;50.50;97238.59;7292888;19;131723;-37
2024/01/03 08:18:03;;;;;;;183.88;6.80;;;;;;;21.34;50.76;97237.97;7295791;19;130006;-37
2024/01/03 08:20:28;;;;;;;254.90;9.33;;;;;;;21.32;50.78;97239.97;7294219;19;129908;-37
2024/01/03 08:22:53;;;;;;;274.98;10.32;;;;;;;21.33;50.27;97246.03;7297397;19;130944;-37
2024/01/03 08:25:19;;;;;;;220.20;8.13;;;;;;;21.37;50.15;97248.03;7293687;19;130944;-37
2024/01/03 08:27:44;;;;;;;227.80;8.40;;;;;;;21.33;50.36;97240.78;7292057;19;131059;-38
2024/01/03 08:30:10;;;;;;;250.33;9.07;;;;;;;21.35;50.51;97244.84;7291561;19;130347;-38
2024/01/03 08:32:36;;;;;;;234.73;8.50;;;;;;;21.33;50.72;97246.84;7296495;19;131839;-38
2024/01/03 08:35:03;;;;;;;245.35;9.13;;;;;;;21.33;50.25;97252.06;7293285;19;129295;-37
2024/01/03 08:37:29;;;;;;;221.07;8.02;;;;;;;21.33;50.75;97246.84;7294065;19;132307;-35
2024/01/03 08:39:55;;;;;;;223.60;8.27;;;;;;;21.35;50.70;97237.00;7294465;19;131667;-35
2024/01/03 08:42:23;;;;;;;218.13;8.03;;;;;;;21.31;50.21;97246.22;7295690;19;129140;-37
2024/01/03 08:44:48;;;;;;;133.25;4.97;;;;;;;21.33;50.68;97246.84;7294861;19;130790;-37
2024/01/03 08:47:14;;;;;;;234.48;8.88;;;;;;;21.39;50.86;97240.81;7296872;19;132108;-39
2024/01/03 08:49:39;;;;;;;268.13;9.82;;;;;;;21.38;51.11;97254.91;7292832;19;131372;-35
2024/01/03 08:52:04;;;;;;;268.08;9.90;;;;;;;21.30;50.12;97251.66;7295118;19;129983;-38
2024/01/03 08:54:30;;;;;;;211.00;7.80;;;;;;;21.32;50.99;97250.44;7294131;19;130187;-36
2024/01/03 08:56:55;;;;;;;211.20;7.70;;;;;;;21.30;51.13;97246.41;7296120;19;133616;-38
2024/01/03 08:59:20;;;;;;;270.00;9.63;;;;;;;21.35;50.64;97260.53;7293027;19;130321;-35
2024/01/03 09:01:51;;;;;;;147.35;5.35;;;;;;;21.38;51.80;97261.94;7294054;19;129612;-36
2024/01/03 09:04:16;;;;;;;210.98;7.93;;;;;;;21.39;51.12;97256.50;7295998;19;129775;-37
2024/01/03 09:06:42;;;;;;;232.73;8.43;;;;;;;21.39;50.22;97261.72;7296166;19;130212;-36
2024/01/03 09:09:07;;;;;;;277.83;10.15;;;;;;;21.36;50.28;97256.91;7295170;19;130298;-38
2024/01/03 09:11:32;;;;;;;271.90;10.40;;;;;;;21.34;50.61;97256.28;7294817;19;130100;-37
2024/01/03 09:13:58;;;;;;;180.90;6.72;;;;;;;21.34;50.10;97245.81;7292740;19;129132;-37
2024/01/03 09:16:24;;;;;;;223.10;8.07;;;;;;;21.33;50.10;97257.28;7293074;19;130673;-38
2024/01/03 09:18:50;;;;;;;254.20;9.27;;;;;;;21.30;50.67;97247.22;7294269;19;130392;-38
2024/01/03 09:21:15;;;;;;;216.68;7.93;;;;;;;21.33;50.16;97256.47;7295904;19;131800;-39
2024/01/03 09:23:41;;;;;;;191.95;7.00;;;;;;;21.33;50.97;97259.91;7294838;19;130924;-36
2024/01/03 09:26:07;;;;;;;302.25;11.68;;;;;;;21.34;50.27;97261.50;7292719;19;131772;-38
2024/01/03 09:28:34;;;;;;;234.68;8.65;;;;;;;21.20;50.17;97241.56;7290869;19;130516;-37
2024/01/03 09:31:02;;;;;;;203.13;7.32;;;;;;;21.36;50.74;97262.13;7293080;19;129914;-39
2024/01/03 09:33:27;;;;;;;271.50;10.00;;;;;;;21.34;50.66;97256.28;7290851;19;131027;-37
2024/01/03 09:35:53;;;;;;;127.85;4.57;;;;;;;21.34;51.13;97258.91;7290754;19;129556;-38
2024/01/03 09:38:18;;;;;;;318.00;12.00;;;;;;;21.38;50.73;97270.59;7290946;19;130296;-37
2024/01/03 09:40:43;;;;;;;227.45;8.45;;;;;;;21.41;50.77;97272.81;7295064;19;131532;-39
2024/01/03 09:43:12;;;;;;;270.85;10.40;;;;;;;21.37;50.73;97263.72;7293266;19;130057;-38
2024/01/03 09:45:37;;;;;;;207.90;7.70;;;;;;;21.34;51.19;97269.34;7288655;19;129659;-38
2024/01/03 09:48:04;;;;;;;287.75;10.30;;;;;;;21.37;50.39;97274.19;7288744;19;132221;-37
2024/01/03 09:50:31;;;;;;;176.13;6.63;;;;;;;21.35;50.83;97255.28;7294639;19;129161;-37
2024/01/03 09:52:57;;;;;;;234.75;8.57;;;;;;;21.38;50.87;97267.97;7292642;19;129337;-36
2024/01/03 09:55:23;;;;;;;281.02;10.07;;;;;;;21.39;50.51;97269.56;7287686;19;130892;-36
2024/01/03 09:57:50;;;;;;;225.68;8.25;;;;;;;21.36;51.01;97262.13;7290334;19;130661;-37
2024/01/03 10:00:16;;;;;;;303.30;11.55;;;;;;;21.33;51.07;97270.34;7290065;19;129906;-36
2024/01/03 10:02:45;;;;;;;172.17;6.33;;;;;;;21.44;51.57;97263.75;7291639;19;129184;-38
2024/01/03 10:05:21;;;;;;;184.90;6.72;;;;;;;21.34;50.93;97268.53;7291695;19;130845;-35
2024/01/03 10:07:46;;;;;;;263.00;9.43;;;;;;;21.37;50.81;97263.72;7290639;19;129524;-35
2024/01/03 10:10:12;;;;;;;231.60;8.43;;;;;;;21.37;50.77;97266.34;7289299;19;131822;-37
2024/01/03 10:12:38;;;;;;;215.27;8.30;;;;;;;21.39;50.76;97264.34;7290649;19;129988;-37
2024/01/03 10:15:15;;;;;;;242.40;8.93;;;;;;;21.37;51.05;97266.34;7291691;19;132215;-38
2024/01/03 10:17:42;;;;;;;255.63;9.27;;;;;;;21.23;50.44;97235.94;7293143;19;130548;-38
2024/01/03 10:20:27;;;;;;;156.52;5.85;;;;;;;21.32;51.38;97258.28;7293495;19;129631;-36
2024/01/03 10:23:12;;;;;;;132.73;4.82;;;;;;;21.39;51.28;97261.72;7294692;19;129537;-35
2024/01/03 10:25:38;;;;;;;231.73;8.35;;;;;;;21.35;50.55;97250.06;7289883;19;130095;-41
2024/01/03 10:28:09;;;;;;;248.20;9.00;;;;;;;21.32;50.78;97250.44;7288749;19;130942;-40
2024/01/03 10:30:34;;;;;;;149.00;5.22;;;;;;;21.36;50.20;97251.66;7291133;19;131486;-37
2024/01/03 10:33:04;;;;;;;202.27;7.38;;;;;;;21.35;50.07;97244.84;7293867;19;132414;-39
2024/01/03 10:35:31;;;;;;;213.13;7.70;;;;;;;21.36;50.42;97241.22;7293298;19;131100;-41
2024/01/03 10:37:59;;;;;;;144.90;5.30;;;;;;;21.36;50.26;97246.44;7292434;19;130425;-41
2024/01/03 10:40:29;;;;;;;207.32;7.85;;;;;;;21.32;50.24;97237.38;7292728;19;129634;-36
2024/01/03 10:42:55;;;;;;;197.65;7.32;;;;;;;21.23;50.86;97222.88;7291343;19;130967;-36
2024/01/03 10:45:21;;;;;;;192.10;6.97;;;;;;;21.34;50.34;97237.97;7289970;19;130240;-41
2024/01/03 10:47:48;;;;;;;174.13;6.40;;;;;;;21.35;50.59;97237.00;7294108;19;130991;-42
2024/01/03 10:50:14;;;;;;;169.17;6.50;;;;;;;21.38;51.34;97234.00;7292611;19;133282;-41
2024/01/03 10:52:42;;;;;;;230.13;8.40;;;;;;;21.34;50.58;97234.56;7283937;19;130560;-37
2024/01/03 10:55:17;;;;;;;226.15;8.32;;;;;;;21.35;51.09;97234.38;7288239;19;130199;-38
2024/01/03 10:57:54;;;;;;;169.35;6.13;;;;;;;21.35;50.91;97223.94;7294785;19;131291;-41
2024/01/03 11:00:43;;;;;;;251.65;9.43;;;;;;;21.36;50.89;97230.75;7294799;19;130787;-35
2024/01/03 11:03:23;;;;;;;190.10;7.05;;;;;;;21.37;51.53;97232.34;7293766;19;129604;-38
2024/01/03 11:06:17;;;;;;;189.73;6.85;;;;;;;21.34;51.63;97227.53;7290373;19;130706;-39